GLO9088 SBGR-SBVT
Flight info
| Callsign | GLO9088 |
|---|---|
| Flight time | 1h 5m |
| Altitude | 39000 |
| Route | UREMI UZ42 IMDAB DCT SEGLI DCT TODET |
| Aircraft | B38M/M-DFGHIJ4J7KLORWXY/LB1 |
Departure
| Time | 2026-05-08 02:31 |
|---|---|
| Airport | São Paulo/Guarulhos–Governor André Franco Montoro International Airport (SBGR) |
Arrival
| Time | 2026-05-08 03:36 |
|---|---|
| Airport | Eurico de Aguiar Salles International Airport (SBVT) |
| Time | Latitude | Longitude | Altitude | Speed | Heading |
|---|---|---|---|---|---|
| 2026-05-08 02:05 | -23.42810 | -46.48239 | 2464 ft | 0 kts | 266° |
| 2026-05-08 02:20 | -23.42809 | -46.48230 | 2464 ft | 4 kts | 265° |
| 2026-05-08 02:20 | -23.42805 | -46.48201 | 2467 ft | 4 kts | 251° |
| 2026-05-08 02:20 | -23.42793 | -46.48181 | 2464 ft | 4 kts | 197° |
| 2026-05-08 02:20 | -23.42785 | -46.48180 | 2464 ft | 0 kts | 175° |
| 2026-05-08 02:26 | -23.42796 | -46.48179 | 2464 ft | 4 kts | 175° |
| 2026-05-08 02:26 | -23.42852 | -46.48174 | 2468 ft | 13 kts | 175° |
| 2026-05-08 02:26 | -23.42950 | -46.48144 | 2467 ft | 17 kts | 167° |
| 2026-05-08 02:27 | -23.43060 | -46.48131 | 2466 ft | 15 kts | 175° |
| 2026-05-08 02:27 | -23.43127 | -46.48167 | 2464 ft | 11 kts | 251° |
| 2026-05-08 02:27 | -23.43149 | -46.48253 | 2464 ft | 12 kts | 255° |
| 2026-05-08 02:27 | -23.43173 | -46.48348 | 2466 ft | 13 kts | 250° |
| 2026-05-08 02:28 | -23.43230 | -46.48388 | 2466 ft | 10 kts | 174° |
| 2026-05-08 02:28 | -23.43279 | -46.48375 | 2465 ft | 3 kts | 164° |
| 2026-05-08 02:28 | -23.43304 | -46.48367 | 2468 ft | 4 kts | 164° |
| 2026-05-08 02:28 | -23.43340 | -46.48356 | 2465 ft | 7 kts | 163° |
| 2026-05-08 02:29 | -23.43395 | -46.48337 | 2470 ft | 10 kts | 162° |
| 2026-05-08 02:29 | -23.43415 | -46.48282 | 2463 ft | 8 kts | 75° |
| 2026-05-08 02:29 | -23.43413 | -46.48274 | 2469 ft | 0 kts | 74° |
| 2026-05-08 02:29 | -23.43373 | -46.48130 | 2465 ft | 51 kts | 73° |
| 2026-05-08 02:30 | -23.43214 | -46.47543 | 2461 ft | 109 kts | 73° |
| 2026-05-08 02:30 | -23.42953 | -46.46578 | 2468 ft | 156 kts | 73° |
| 2026-05-08 02:30 | -23.42611 | -46.45306 | 2483 ft | 192 kts | 73° |
| 2026-05-08 02:30 | -23.42235 | -46.43851 | 2897 ft | 204 kts | 69° |
| 2026-05-08 02:31 | -23.41788 | -46.42363 | 3519 ft | 212 kts | 68° |
| 2026-05-08 02:31 | -23.41334 | -46.40841 | 4192 ft | 214 kts | 66° |
| 2026-05-08 02:31 | -23.40844 | -46.39223 | 4591 ft | 234 kts | 66° |
| 2026-05-08 02:31 | -23.40336 | -46.37465 | 5024 ft | 255 kts | 69° |
| 2026-05-08 02:32 | -23.40264 | -46.35436 | 5408 ft | 285 kts | 97° |
| 2026-05-08 02:32 | -23.40904 | -46.33360 | 6183 ft | 292 kts | 105° |
| 2026-05-08 02:32 | -23.41594 | -46.31247 | 6829 ft | 299 kts | 105° |
| 2026-05-08 02:32 | -23.42289 | -46.29112 | 7572 ft | 301 kts | 105° |
| 2026-05-08 02:33 | -23.42996 | -46.26950 | 8324 ft | 304 kts | 106° |
| 2026-05-08 02:33 | -23.43703 | -46.24772 | 9087 ft | 307 kts | 104° |
| 2026-05-08 02:33 | -23.44152 | -46.22501 | 9843 ft | 307 kts | 95° |
| 2026-05-08 02:33 | -23.44510 | -46.20192 | 10432 ft | 317 kts | 96° |
| 2026-05-08 02:34 | -23.44912 | -46.17763 | 10781 ft | 334 kts | 97° |
| 2026-05-08 02:34 | -23.45345 | -46.15235 | 11339 ft | 342 kts | 97° |
| 2026-05-08 02:34 | -23.45790 | -46.12696 | 12180 ft | 342 kts | 98° |
| 2026-05-08 02:34 | -23.46241 | -46.10134 | 12789 ft | 348 kts | 98° |
| 2026-05-08 02:35 | -23.46699 | -46.07549 | 12974 ft | 347 kts | 98° |
| 2026-05-08 02:35 | -23.47156 | -46.04970 | 13024 ft | 347 kts | 98° |
| 2026-05-08 02:35 | -23.47615 | -46.02376 | 13349 ft | 349 kts | 98° |
| 2026-05-08 02:35 | -23.48073 | -45.99784 | 14171 ft | 349 kts | 98° |
| 2026-05-08 02:36 | -23.48534 | -45.97175 | 14832 ft | 353 kts | 98° |
| 2026-05-08 02:36 | -23.48962 | -45.94535 | 15508 ft | 355 kts | 92° |
| 2026-05-08 02:36 | -23.48767 | -45.91892 | 16150 ft | 353 kts | 74° |
| 2026-05-08 02:36 | -23.48177 | -45.89281 | 16779 ft | 357 kts | 74° |
| 2026-05-08 02:37 | -23.47569 | -45.86648 | 17429 ft | 360 kts | 73° |
| 2026-05-08 02:37 | -23.46941 | -45.83997 | 18064 ft | 363 kts | 73° |
| 2026-05-08 02:37 | -23.46296 | -45.81323 | 18626 ft | 367 kts | 73° |
| 2026-05-08 02:37 | -23.45638 | -45.78624 | 19119 ft | 371 kts | 73° |
| 2026-05-08 02:38 | -23.44970 | -45.75893 | 19595 ft | 376 kts | 73° |
| 2026-05-08 02:38 | -23.44291 | -45.73124 | 20059 ft | 380 kts | 73° |
| 2026-05-08 02:38 | -23.43606 | -45.70333 | 20549 ft | 384 kts | 73° |
| 2026-05-08 02:38 | -23.42912 | -45.67512 | 21019 ft | 389 kts | 74° |
| 2026-05-08 02:39 | -23.42210 | -45.64657 | 21488 ft | 393 kts | 74° |
| 2026-05-08 02:39 | -23.41498 | -45.61764 | 21944 ft | 397 kts | 74° |
| 2026-05-08 02:39 | -23.40778 | -45.58842 | 22407 ft | 401 kts | 74° |
| 2026-05-08 02:39 | -23.40051 | -45.55894 | 22860 ft | 406 kts | 74° |
| 2026-05-08 02:40 | -23.39315 | -45.52913 | 23312 ft | 410 kts | 75° |
| 2026-05-08 02:40 | -23.38649 | -45.49926 | 23722 ft | 414 kts | 77° |
| 2026-05-08 02:40 | -23.37991 | -45.46823 | 24106 ft | 417 kts | 77° |
| 2026-05-08 02:40 | -23.37329 | -45.43735 | 24512 ft | 420 kts | 77° |
| 2026-05-08 02:41 | -23.36663 | -45.40644 | 24919 ft | 423 kts | 77° |
| 2026-05-08 02:41 | -23.35997 | -45.37558 | 25296 ft | 426 kts | 77° |
| 2026-05-08 02:41 | -23.35308 | -45.34370 | 25687 ft | 429 kts | 77° |
| 2026-05-08 02:41 | -23.34633 | -45.31242 | 26065 ft | 432 kts | 77° |
| 2026-05-08 02:42 | -23.33950 | -45.28049 | 26433 ft | 435 kts | 77° |
| 2026-05-08 02:42 | -23.33262 | -45.24841 | 26817 ft | 437 kts | 77° |
| 2026-05-08 02:42 | -23.32567 | -45.21607 | 27193 ft | 440 kts | 77° |
| 2026-05-08 02:42 | -23.31869 | -45.18356 | 27547 ft | 443 kts | 77° |
| 2026-05-08 02:43 | -23.31164 | -45.15082 | 27919 ft | 445 kts | 77° |
| 2026-05-08 02:43 | -23.30458 | -45.11806 | 28275 ft | 448 kts | 77° |
| 2026-05-08 02:43 | -23.29746 | -45.08501 | 28610 ft | 451 kts | 77° |
| 2026-05-08 02:43 | -23.29026 | -45.05170 | 28952 ft | 454 kts | 77° |
| 2026-05-08 02:44 | -23.28303 | -45.01825 | 29285 ft | 456 kts | 77° |
| 2026-05-08 02:44 | -23.27573 | -44.98448 | 29563 ft | 459 kts | 77° |
| 2026-05-08 02:44 | -23.26839 | -44.95063 | 29931 ft | 461 kts | 77° |
| 2026-05-08 02:44 | -23.26101 | -44.91657 | 30210 ft | 464 kts | 77° |
| 2026-05-08 02:45 | -23.25361 | -44.88250 | 30497 ft | 466 kts | 77° |
| 2026-05-08 02:45 | -23.24613 | -44.84808 | 30800 ft | 468 kts | 77° |
| 2026-05-08 02:45 | -23.23862 | -44.81353 | 31055 ft | 471 kts | 78° |
| 2026-05-08 02:45 | -23.23105 | -44.77879 | 31330 ft | 473 kts | 78° |
| 2026-05-08 02:46 | -23.22344 | -44.74389 | 31598 ft | 475 kts | 78° |
| 2026-05-08 02:46 | -23.21580 | -44.70891 | 31848 ft | 478 kts | 78° |
| 2026-05-08 02:46 | -23.20809 | -44.67364 | 32100 ft | 480 kts | 78° |
| 2026-05-08 02:46 | -23.20035 | -44.63828 | 32374 ft | 482 kts | 77° |
| 2026-05-08 02:47 | -23.18934 | -44.60387 | 32613 ft | 485 kts | 66° |
| 2026-05-08 02:47 | -23.17567 | -44.57038 | 32888 ft | 487 kts | 67° |
| 2026-05-08 02:47 | -23.16243 | -44.53689 | 33129 ft | 490 kts | 67° |
| 2026-05-08 02:47 | -23.14892 | -44.50287 | 33402 ft | 491 kts | 67° |
| 2026-05-08 02:48 | -23.13536 | -44.46881 | 33720 ft | 492 kts | 68° |
| 2026-05-08 02:48 | -23.12176 | -44.43470 | 34038 ft | 492 kts | 68° |
| 2026-05-08 02:48 | -23.10818 | -44.40064 | 34343 ft | 492 kts | 68° |
| 2026-05-08 02:48 | -23.09462 | -44.36668 | 34607 ft | 492 kts | 68° |
| 2026-05-08 02:49 | -23.08103 | -44.33265 | 34870 ft | 492 kts | 68° |
| 2026-05-08 02:49 | -23.06739 | -44.29851 | 35091 ft | 493 kts | 68° |
| 2026-05-08 02:49 | -23.05372 | -44.26433 | 35334 ft | 494 kts | 68° |
| 2026-05-08 02:49 | -23.04001 | -44.23011 | 35561 ft | 495 kts | 68° |
| 2026-05-08 02:50 | -23.02629 | -44.19584 | 35783 ft | 495 kts | 68° |
| 2026-05-08 02:50 | -23.01255 | -44.16158 | 36027 ft | 495 kts | 68° |
| 2026-05-08 02:50 | -22.99879 | -44.12728 | 36274 ft | 495 kts | 68° |
| 2026-05-08 02:50 | -22.98507 | -44.09311 | 36477 ft | 496 kts | 68° |
| 2026-05-08 02:51 | -22.97133 | -44.05891 | 36680 ft | 496 kts | 68° |
| 2026-05-08 02:51 | -22.95750 | -44.02451 | 36877 ft | 497 kts | 68° |
| 2026-05-08 02:51 | -22.94364 | -43.99008 | 37055 ft | 498 kts | 68° |
| 2026-05-08 02:51 | -22.92978 | -43.95566 | 37264 ft | 498 kts | 68° |
| 2026-05-08 02:52 | -22.91591 | -43.92124 | 37440 ft | 499 kts | 68° |
| 2026-05-08 02:52 | -22.90202 | -43.88680 | 37621 ft | 499 kts | 68° |
| 2026-05-08 02:52 | -22.88818 | -43.85250 | 37825 ft | 499 kts | 68° |
| 2026-05-08 02:52 | -22.87424 | -43.81799 | 38000 ft | 500 kts | 68° |
| 2026-05-08 02:53 | -22.86028 | -43.78344 | 38155 ft | 500 kts | 68° |
| 2026-05-08 02:53 | -22.84630 | -43.74889 | 38310 ft | 500 kts | 68° |
| 2026-05-08 02:53 | -22.83232 | -43.71435 | 38462 ft | 501 kts | 68° |
| 2026-05-08 02:53 | -22.81831 | -43.67976 | 38602 ft | 501 kts | 68° |
| 2026-05-08 02:54 | -22.80428 | -43.64517 | 38729 ft | 502 kts | 68° |
| 2026-05-08 02:54 | -22.79031 | -43.61072 | 38862 ft | 502 kts | 68° |
| 2026-05-08 02:54 | -22.77625 | -43.57607 | 38991 ft | 501 kts | 69° |
| 2026-05-08 02:54 | -22.76222 | -43.54155 | 39035 ft | 501 kts | 69° |
| 2026-05-08 02:55 | -22.72022 | -43.43833 | 39032 ft | 499 kts | 69° |
| 2026-05-08 02:56 | -22.69226 | -43.36973 | 39006 ft | 499 kts | 69° |
| 2026-05-08 02:56 | -22.66422 | -43.30105 | 39003 ft | 499 kts | 69° |
| 2026-05-08 02:57 | -22.63616 | -43.23238 | 39009 ft | 498 kts | 69° |
| 2026-05-08 02:57 | -22.60812 | -43.16391 | 39014 ft | 497 kts | 69° |
| 2026-05-08 02:58 | -22.58011 | -43.09560 | 39063 ft | 498 kts | 69° |
| 2026-05-08 02:58 | -22.55202 | -43.02718 | 39059 ft | 497 kts | 69° |
| 2026-05-08 02:59 | -22.52391 | -42.95879 | 39063 ft | 498 kts | 69° |
| 2026-05-08 02:59 | -22.49575 | -42.89041 | 39074 ft | 496 kts | 69° |
| 2026-05-08 03:00 | -22.46789 | -42.82285 | 39091 ft | 497 kts | 69° |
| 2026-05-08 03:00 | -22.43969 | -42.75455 | 39077 ft | 497 kts | 69° |
| 2026-05-08 03:01 | -22.41146 | -42.68628 | 39100 ft | 498 kts | 69° |
| 2026-05-08 03:01 | -22.38327 | -42.61821 | 39103 ft | 497 kts | 69° |
| 2026-05-08 03:02 | -22.35497 | -42.54993 | 39107 ft | 498 kts | 69° |
| 2026-05-08 03:02 | -22.32668 | -42.48177 | 39117 ft | 497 kts | 69° |
| 2026-05-08 03:03 | -22.29804 | -42.41376 | 39091 ft | 499 kts | 64° |
| 2026-05-08 03:03 | -22.27860 | -42.38295 | 39122 ft | 500 kts | 53° |
| 2026-05-08 03:03 | -22.25753 | -42.35301 | 39096 ft | 502 kts | 55° |
| 2026-05-08 03:04 | -22.21549 | -42.29262 | 39118 ft | 503 kts | 54° |
| 2026-05-08 03:04 | -22.17317 | -42.23248 | 39112 ft | 502 kts | 54° |
| 2026-05-08 03:05 | -22.13089 | -42.17252 | 39120 ft | 503 kts | 54° |
| 2026-05-08 03:05 | -22.08850 | -42.11244 | 39094 ft | 503 kts | 55° |
| 2026-05-08 03:06 | -22.04609 | -42.05243 | 39118 ft | 503 kts | 54° |
| 2026-05-08 03:06 | -22.00372 | -41.99253 | 38785 ft | 499 kts | 55° |
| 2026-05-08 03:06 | -21.98259 | -41.96268 | 37835 ft | 505 kts | 55° |
| 2026-05-08 03:07 | -21.96120 | -41.93251 | 36792 ft | 511 kts | 54° |
| 2026-05-08 03:07 | -21.93999 | -41.90260 | 35920 ft | 506 kts | 54° |
| 2026-05-08 03:07 | -21.91850 | -41.87229 | 35151 ft | 499 kts | 53° |
| 2026-05-08 03:07 | -21.89764 | -41.84289 | 34469 ft | 490 kts | 53° |
| 2026-05-08 03:08 | -21.87748 | -41.81448 | 33930 ft | 478 kts | 53° |
| 2026-05-08 03:08 | -21.85757 | -41.78644 | 33454 ft | 464 kts | 53° |
| 2026-05-08 03:08 | -21.83819 | -41.75919 | 32994 ft | 454 kts | 52° |
| 2026-05-08 03:08 | -21.81913 | -41.73236 | 32515 ft | 451 kts | 53° |
| 2026-05-08 03:09 | -21.80010 | -41.70560 | 32021 ft | 450 kts | 53° |
| 2026-05-08 03:09 | -21.78109 | -41.67889 | 31522 ft | 448 kts | 53° |
| 2026-05-08 03:09 | -21.76216 | -41.65230 | 31009 ft | 447 kts | 53° |
| 2026-05-08 03:09 | -21.74325 | -41.62577 | 30535 ft | 445 kts | 53° |
| 2026-05-08 03:10 | -21.72445 | -41.59939 | 30023 ft | 444 kts | 53° |
| 2026-05-08 03:10 | -21.70571 | -41.57311 | 29472 ft | 442 kts | 53° |
| 2026-05-08 03:10 | -21.68715 | -41.54710 | 28971 ft | 434 kts | 53° |
| 2026-05-08 03:10 | -21.66905 | -41.52175 | 28540 ft | 423 kts | 53° |
| 2026-05-08 03:11 | -21.65134 | -41.49695 | 28102 ft | 415 kts | 53° |
| 2026-05-08 03:11 | -21.63378 | -41.47237 | 27664 ft | 413 kts | 53° |
| 2026-05-08 03:11 | -21.62221 | -41.45618 | 27371 ft | 412 kts | 53° |
| 2026-05-08 03:11 | -21.60480 | -41.43183 | 26943 ft | 409 kts | 53° |
| 2026-05-08 03:12 | -21.58752 | -41.40767 | 26516 ft | 407 kts | 53° |
| 2026-05-08 03:12 | -21.57029 | -41.38359 | 26095 ft | 405 kts | 53° |
| 2026-05-08 03:12 | -21.55314 | -41.35963 | 25676 ft | 404 kts | 53° |
| 2026-05-08 03:12 | -21.53608 | -41.33580 | 25279 ft | 402 kts | 53° |
| 2026-05-08 03:13 | -21.51913 | -41.31214 | 24853 ft | 400 kts | 53° |
| 2026-05-08 03:13 | -21.50235 | -41.28873 | 24427 ft | 391 kts | 53° |
| 2026-05-08 03:13 | -21.48372 | -41.26809 | 24020 ft | 381 kts | 38° |
| 2026-05-08 03:13 | -21.46336 | -41.25061 | 23694 ft | 369 kts | 40° |
| 2026-05-08 03:14 | -21.44382 | -41.23329 | 23297 ft | 359 kts | 40° |
| 2026-05-08 03:14 | -21.42465 | -41.21634 | 22944 ft | 355 kts | 40° |
| 2026-05-08 03:14 | -21.40568 | -41.19958 | 22577 ft | 352 kts | 40° |
| 2026-05-08 03:14 | -21.38679 | -41.18290 | 22228 ft | 350 kts | 39° |
| 2026-05-08 03:15 | -21.36811 | -41.16641 | 21891 ft | 347 kts | 39° |
| 2026-05-08 03:15 | -21.34956 | -41.15005 | 21543 ft | 344 kts | 39° |
| 2026-05-08 03:15 | -21.33123 | -41.13389 | 21216 ft | 341 kts | 39° |
| 2026-05-08 03:15 | -21.31297 | -41.11781 | 20869 ft | 339 kts | 39° |
| 2026-05-08 03:16 | -21.29473 | -41.10175 | 20472 ft | 339 kts | 39° |
| 2026-05-08 03:16 | -21.27659 | -41.08578 | 20148 ft | 336 kts | 39° |
| 2026-05-08 03:16 | -21.25858 | -41.06994 | 19816 ft | 334 kts | 38° |
| 2026-05-08 03:16 | -21.24064 | -41.05415 | 19483 ft | 332 kts | 39° |
| 2026-05-08 03:17 | -21.22286 | -41.03852 | 19154 ft | 330 kts | 38° |
| 2026-05-08 03:17 | -21.20515 | -41.02296 | 18825 ft | 328 kts | 38° |
| 2026-05-08 03:17 | -21.18756 | -41.00750 | 18490 ft | 327 kts | 38° |
| 2026-05-08 03:17 | -21.17003 | -40.99211 | 18135 ft | 325 kts | 38° |
| 2026-05-08 03:18 | -21.15258 | -40.97678 | 17790 ft | 323 kts | 38° |
| 2026-05-08 03:18 | -21.13536 | -40.96166 | 17455 ft | 320 kts | 38° |
| 2026-05-08 03:18 | -21.11822 | -40.94663 | 17139 ft | 317 kts | 38° |
| 2026-05-08 03:18 | -21.10125 | -40.93173 | 16821 ft | 314 kts | 38° |
| 2026-05-08 03:19 | -21.08438 | -40.91694 | 16505 ft | 311 kts | 38° |
| 2026-05-08 03:19 | -21.06771 | -40.90232 | 16188 ft | 309 kts | 38° |
| 2026-05-08 03:19 | -21.05108 | -40.88775 | 15834 ft | 308 kts | 39° |
| 2026-05-08 03:19 | -21.03454 | -40.87325 | 15528 ft | 305 kts | 39° |
| 2026-05-08 03:20 | -21.01817 | -40.85891 | 15226 ft | 303 kts | 39° |
| 2026-05-08 03:20 | -21.00216 | -40.84488 | 14931 ft | 301 kts | 39° |
| 2026-05-08 03:20 | -20.98580 | -40.83055 | 14625 ft | 298 kts | 39° |
| 2026-05-08 03:20 | -20.97001 | -40.81673 | 14333 ft | 296 kts | 39° |
| 2026-05-08 03:21 | -20.95423 | -40.80291 | 14043 ft | 294 kts | 39° |
| 2026-05-08 03:21 | -20.93843 | -40.78909 | 13671 ft | 294 kts | 39° |
| 2026-05-08 03:21 | -20.92258 | -40.77523 | 13287 ft | 294 kts | 39° |
| 2026-05-08 03:21 | -20.90681 | -40.76144 | 12953 ft | 292 kts | 39° |
| 2026-05-08 03:22 | -20.89112 | -40.74773 | 12637 ft | 290 kts | 39° |
| 2026-05-08 03:22 | -20.87557 | -40.73414 | 12320 ft | 288 kts | 39° |
| 2026-05-08 03:22 | -20.86006 | -40.72059 | 11942 ft | 288 kts | 39° |
| 2026-05-08 03:22 | -20.84454 | -40.70703 | 11586 ft | 288 kts | 39° |
| 2026-05-08 03:23 | -20.82909 | -40.69353 | 11277 ft | 286 kts | 39° |
| 2026-05-08 03:23 | -20.81379 | -40.68017 | 10991 ft | 283 kts | 39° |
| 2026-05-08 03:23 | -20.80059 | -40.66465 | 10654 ft | 283 kts | 53° |
| 2026-05-08 03:23 | -20.78920 | -40.64753 | 10360 ft | 281 kts | 53° |
| 2026-05-08 03:24 | -20.77793 | -40.63078 | 10206 ft | 274 kts | 52° |
| 2026-05-08 03:24 | -20.76697 | -40.61450 | 9983 ft | 269 kts | 53° |
| 2026-05-08 03:24 | -20.75605 | -40.59831 | 9652 ft | 268 kts | 52° |
| 2026-05-08 03:24 | -20.74515 | -40.58217 | 9332 ft | 267 kts | 52° |
| 2026-05-08 03:25 | -20.73435 | -40.56617 | 9038 ft | 265 kts | 53° |
| 2026-05-08 03:25 | -20.72361 | -40.55026 | 8736 ft | 263 kts | 53° |
| 2026-05-08 03:25 | -20.71295 | -40.53448 | 8448 ft | 261 kts | 53° |
| 2026-05-08 03:25 | -20.70237 | -40.51883 | 8160 ft | 259 kts | 53° |
| 2026-05-08 03:26 | -20.69187 | -40.50329 | 7871 ft | 257 kts | 53° |
| 2026-05-08 03:26 | -20.68144 | -40.48786 | 7593 ft | 255 kts | 53° |
| 2026-05-08 03:26 | -20.67108 | -40.47255 | 7315 ft | 253 kts | 53° |
| 2026-05-08 03:26 | -20.66081 | -40.45737 | 7044 ft | 252 kts | 53° |
| 2026-05-08 03:27 | -20.65058 | -40.44225 | 6764 ft | 250 kts | 53° |
| 2026-05-08 03:27 | -20.64044 | -40.42726 | 6499 ft | 248 kts | 53° |
| 2026-05-08 03:27 | -20.63037 | -40.41239 | 6200 ft | 246 kts | 53° |
| 2026-05-08 03:27 | -20.62042 | -40.39770 | 5921 ft | 244 kts | 53° |
| 2026-05-08 03:28 | -20.61051 | -40.38308 | 5653 ft | 242 kts | 53° |
| 2026-05-08 03:28 | -20.60069 | -40.36858 | 5359 ft | 241 kts | 53° |
| 2026-05-08 03:28 | -20.59086 | -40.35408 | 5061 ft | 241 kts | 53° |
| 2026-05-08 03:28 | -20.58109 | -40.33966 | 4836 ft | 237 kts | 53° |
| 2026-05-08 03:29 | -20.57157 | -40.32563 | 4692 ft | 229 kts | 53° |
| 2026-05-08 03:29 | -20.56239 | -40.31210 | 4565 ft | 221 kts | 53° |
| 2026-05-08 03:29 | -20.55358 | -40.29910 | 4473 ft | 211 kts | 53° |
| 2026-05-08 03:29 | -20.54518 | -40.28672 | 4359 ft | 201 kts | 52° |
| 2026-05-08 03:30 | -20.52942 | -40.26351 | 4088 ft | 187 kts | 52° |
| 2026-05-08 03:30 | -20.51047 | -40.24556 | 3811 ft | 188 kts | 13° |
| 2026-05-08 03:31 | -20.48422 | -40.24696 | 3385 ft | 192 kts | 356° |
| 2026-05-08 03:31 | -20.45856 | -40.25033 | 2978 ft | 179 kts | 355° |
| 2026-05-08 03:32 | -20.44645 | -40.25202 | 2755 ft | 176 kts | 355° |
| 2026-05-08 03:32 | -20.43441 | -40.25372 | 2551 ft | 172 kts | 355° |
| 2026-05-08 03:32 | -20.42275 | -40.25541 | 2377 ft | 167 kts | 354° |
| 2026-05-08 03:32 | -20.41127 | -40.25708 | 2256 ft | 166 kts | 353° |
| 2026-05-08 03:33 | -20.40022 | -40.25869 | 2207 ft | 158 kts | 353° |
| 2026-05-08 03:33 | -20.38933 | -40.26028 | 2110 ft | 158 kts | 353° |
| 2026-05-08 03:33 | -20.37848 | -40.26187 | 2022 ft | 157 kts | 353° |
| 2026-05-08 03:33 | -20.36807 | -40.26340 | 1945 ft | 147 kts | 353° |
| 2026-05-08 03:34 | -20.35800 | -40.26489 | 1895 ft | 146 kts | 353° |
| 2026-05-08 03:34 | -20.34793 | -40.26637 | 1848 ft | 146 kts | 353° |
| 2026-05-08 03:34 | -20.33782 | -40.26786 | 1645 ft | 146 kts | 352° |
| 2026-05-08 03:34 | -20.32776 | -40.26935 | 1393 ft | 146 kts | 352° |
| 2026-05-08 03:35 | -20.31767 | -40.27084 | 1172 ft | 146 kts | 352° |
| 2026-05-08 03:35 | -20.30757 | -40.27233 | 955 ft | 148 kts | 352° |
| 2026-05-08 03:35 | -20.29735 | -40.27384 | 718 ft | 148 kts | 352° |
| 2026-05-08 03:35 | -20.28716 | -40.27533 | 474 ft | 147 kts | 353° |
| 2026-05-08 03:36 | -20.27714 | -40.27681 | 270 ft | 144 kts | 352° |
| 2026-05-08 03:36 | -20.26738 | -40.27823 | 101 ft | 137 kts | 353° |
| 2026-05-08 03:36 | -20.25864 | -40.27956 | 44 ft | 104 kts | 352° |
| 2026-05-08 03:36 | -20.25385 | -40.28025 | 38 ft | 45 kts | 352° |
| 2026-05-08 03:37 | -20.25235 | -40.28062 | 33 ft | 11 kts | 305° |
| 2026-05-08 03:37 | -20.25242 | -40.28113 | 33 ft | 7 kts | 225° |
| 2026-05-08 03:37 | -20.25287 | -40.28145 | 32 ft | 8 kts | 212° |
| 2026-05-08 03:37 | -20.25340 | -40.28180 | 31 ft | 11 kts | 212° |
| 2026-05-08 03:38 | -20.25417 | -40.28201 | 32 ft | 12 kts | 172° |
| 2026-05-08 03:38 | -20.25495 | -40.28189 | 35 ft | 11 kts | 172° |
| 2026-05-08 03:38 | -20.25568 | -40.28178 | 37 ft | 11 kts | 172° |
| 2026-05-08 03:38 | -20.25647 | -40.28165 | 38 ft | 12 kts | 172° |
| 2026-05-08 03:39 | -20.25742 | -40.28151 | 36 ft | 15 kts | 172° |
| 2026-05-08 03:39 | -20.25853 | -40.28133 | 35 ft | 17 kts | 172° |
| 2026-05-08 03:39 | -20.25972 | -40.28115 | 38 ft | 16 kts | 173° |
| 2026-05-08 03:39 | -20.26085 | -40.28101 | 36 ft | 17 kts | 172° |
| 2026-05-08 03:40 | -20.26199 | -40.28084 | 35 ft | 15 kts | 172° |
| 2026-05-08 03:40 | -20.26296 | -40.28070 | 37 ft | 13 kts | 172° |
| 2026-05-08 03:40 | -20.26391 | -40.28056 | 37 ft | 13 kts | 172° |
| 2026-05-08 03:40 | -20.26461 | -40.28047 | 37 ft | 6 kts | 179° |
| 2026-05-08 03:41 | -20.26483 | -40.28076 | 37 ft | 6 kts | 261° |
| 2026-05-08 03:41 | -20.26490 | -40.28126 | 37 ft | 7 kts | 261° |
| 2026-05-08 03:41 | -20.26496 | -40.28162 | 36 ft | 3 kts | 260° |
| 2026-05-08 03:41 | -20.26498 | -40.28174 | 37 ft | 0 kts | 261° |